Time;durP1;ratioP1;P1;durP2;ratioP2;P2;SDS_P1;SDS_P2;PMS_P1;PMS_P2;Temp;Humidity;BMP_temperature;BMP_pressure;BME280_temperature;BME280_humidity;BME280_pressure;Samples;Min_cycle;Max_cycle;Signal;HPM_P1;HPM_P2
2021/03/29 00:02:06;;;;;;;4.47;1.77;;;6.70;99.90;;;;;;5058252;28;20036;-75
2021/03/29 00:04:32;;;;;;;3.35;1.40;;;6.60;99.90;;;;;;5059203;28;20630;-74
2021/03/29 00:07:01;;;;;;;4.88;1.67;;;6.50;99.90;;;;;;5058198;28;20036;-74
2021/03/29 00:09:30;;;;;;;5.05;1.63;;;6.50;99.90;;;;;;5057157;28;20043;-74
2021/03/29 00:12:00;;;;;;;4.13;1.65;;;6.50;99.90;;;;;;5060699;28;20083;-74
2021/03/29 00:14:27;;;;;;;3.13;1.30;;;6.50;99.90;;;;;;5058045;28;20040;-74
2021/03/29 00:16:53;;;;;;;4.28;1.50;;;6.60;99.90;;;;;;5059032;28;20067;-74
2021/03/29 00:19:20;;;;;;;4.20;1.55;;;6.60;99.90;;;;;;5061589;28;20040;-74
2021/03/29 00:21:46;;;;;;;3.67;1.58;;;6.50;99.90;;;;;;5059474;28;20017;-74
2021/03/29 00:24:12;;;;;;;3.17;1.33;;;6.50;99.90;;;;;;5060970;28;20040;-74
2021/03/29 00:26:39;;;;;;;5.00;1.60;;;6.50;99.90;;;;;;5060873;28;20476;-74
2021/03/29 00:29:05;;;;;;;4.57;1.85;;;6.50;99.90;;;;;;5057048;28;20036;-74
2021/03/29 00:31:32;;;;;;;5.22;1.42;;;6.50;99.90;;;;;;5057249;28;20024;-74
2021/03/29 00:33:59;;;;;;;5.18;1.10;;;6.50;99.90;;;;;;5059348;28;20029;-74
2021/03/29 00:36:26;;;;;;;6.45;1.50;;;6.50;99.90;;;;;;5056358;28;20052;-74
2021/03/29 00:38:54;;;;;;;3.38;1.63;;;6.40;99.90;;;;;;5059360;28;20495;-74
2021/03/29 00:41:21;;;;;;;6.82;1.60;;;6.40;99.90;;;;;;5060464;28;20071;-74
2021/03/29 00:43:48;;;;;;;5.13;1.58;;;6.30;99.90;;;;;;5057802;28;20024;-74
2021/03/29 00:46:16;;;;;;;6.38;1.50;;;6.30;99.90;;;;;;5058982;28;20414;-75
2021/03/29 00:48:43;;;;;;;3.00;1.42;;;6.20;99.90;;;;;;5059123;28;20035;-74
2021/03/29 00:51:14;;;;;;;5.93;1.40;;;6.10;99.90;;;;;;5058297;28;20524;-74
2021/03/29 00:53:47;;;;;;;2.22;1.25;;;6.10;99.90;;;;;;5060375;28;20024;-74
2021/03/29 00:56:14;;;;;;;2.80;1.05;;;6.00;99.90;;;;;;5059822;28;20033;-74
2021/03/29 00:58:40;;;;;;;5.70;1.77;;;6.00;99.90;;;;;;5057329;28;20048;-74
2021/03/29 01:01:14;;;;;;;3.45;1.60;;;6.00;99.90;;;;;;5057904;28;20052;-74
2021/03/29 01:03:42;;;;;;;2.08;1.05;;;6.00;99.90;;;;;;5060295;28;20390;-74
2021/03/29 01:06:14;;;;;;;2.50;1.45;;;5.90;99.90;;;;;;5059054;28;20402;-74
2021/03/29 01:08:42;;;;;;;4.10;1.52;;;5.90;99.90;;;;;;5055867;28;20072;-74
2021/03/29 01:11:11;;;;;;;4.72;1.45;;;5.80;99.90;;;;;;5058651;28;20043;-74
2021/03/29 01:13:45;;;;;;;3.25;1.17;;;5.80;99.90;;;;;;5060673;28;20029;-74
2021/03/29 01:16:14;;;;;;;4.82;1.50;;;5.70;99.90;;;;;;5057493;28;20491;-74
2021/03/29 01:18:42;;;;;;;3.85;1.70;;;5.70;99.90;;;;;;5057186;28;20490;-74
2021/03/29 01:21:35;;;;;;;3.22;1.33;;;5.60;99.90;;;;;;5054846;28;20037;-74
2021/03/29 01:24:10;;;;;;;4.55;1.60;;;5.50;99.90;;;;;;5060328;28;20024;-74
2021/03/29 01:26:45;;;;;;;6.63;1.33;;;5.50;99.90;;;;;;5060000;28;20032;-74
2021/03/29 01:29:13;;;;;;;5.28;1.15;;;5.50;99.90;;;;;;5057643;28;20629;-74
2021/03/29 01:31:40;;;;;;;4.97;1.63;;;5.50;99.90;;;;;;5058401;28;20020;-74
2021/03/29 01:34:09;;;;;;;2.58;1.55;;;5.40;99.90;;;;;;5056174;28;20067;-74
2021/03/29 01:36:35;;;;;;;3.17;1.35;;;5.50;99.90;;;;;;5058911;28;20025;-74
2021/03/29 01:39:04;;;;;;;3.80;0.95;;;5.50;99.90;;;;;;5059429;28;20597;-74
2021/03/29 01:41:30;;;;;;;3.33;1.40;;;5.60;99.90;;;;;;5058027;28;20021;-74
2021/03/29 01:43:57;;;;;;;3.42;1.00;;;5.60;99.90;;;;;;5060985;28;20049;-74
2021/03/29 01:46:23;;;;;;;8.82;1.50;;;5.60;99.90;;;;;;5057989;28;20021;-74
2021/03/29 01:48:50;;;;;;;2.78;1.08;;;5.70;99.90;;;;;;5058658;28;20033;-74
2021/03/29 01:51:17;;;;;;;2.78;1.30;;;5.80;99.90;;;;;;5059417;28;20044;-74
2021/03/29 01:53:43;;;;;;;5.20;1.40;;;5.80;99.90;;;;;;5057233;28;20036;-74
2021/03/29 01:56:10;;;;;;;1.05;0.95;;;5.90;99.90;;;;;;5042429;28;20036;-74
2021/03/29 01:58:35;;;;;;;2.08;1.40;;;5.90;99.90;;;;;;5060033;28;20033;-74
2021/03/29 02:01:05;;;;;;;4.15;1.42;;;6.00;99.90;;;;;;5060836;28;20042;-74
2021/03/29 02:03:31;;;;;;;3.00;1.38;;;6.10;99.90;;;;;;5059378;28;20029;-74
2021/03/29 02:06:00;;;;;;;3.92;1.30;;;6.10;99.90;;;;;;5059033;28;20486;-74
2021/03/29 02:08:27;;;;;;;1.85;1.30;;;6.20;99.90;;;;;;5055155;28;20090;-74
2021/03/29 02:10:57;;;;;;;2.03;0.95;;;6.20;99.90;;;;;;5059009;28;20029;-75
2021/03/29 02:13:27;;;;;;;2.50;0.93;;;6.20;99.90;;;;;;5060412;28;20031;-74
2021/03/29 02:16:01;;;;;;;6.32;1.38;;;6.30;99.90;;;;;;5059382;28;20036;-75
2021/03/29 02:18:32;;;;;;;2.90;1.20;;;6.20;99.90;;;;;;5087798;28;20037;-74
2021/03/29 02:20:59;;;;;;;2.47;1.20;;;6.20;99.90;;;;;;5056868;28;20030;-74
2021/03/29 02:23:26;;;;;;;3.30;1.23;;;6.10;99.90;;;;;;5060319;28;20024;-74
2021/03/29 02:25:52;;;;;;;4.57;1.23;;;6.10;99.90;;;;;;5059169;28;20032;-74
2021/03/29 02:28:19;;;;;;;6.40;1.98;;;6.00;99.90;;;;;;5058098;28;20025;-74
2021/03/29 02:30:47;;;;;;;3.83;1.25;;;5.90;99.90;;;;;;5058440;28;20036;-74
2021/03/29 02:33:16;;;;;;;4.35;1.27;;;5.70;99.90;;;;;;5059112;28;20196;-74
2021/03/29 02:35:44;;;;;;;4.43;1.17;;;5.70;99.90;;;;;;5057318;28;20055;-74
2021/03/29 02:38:18;;;;;;;4.03;1.15;;;5.60;99.90;;;;;;5057308;28;20036;-75
2021/03/29 02:40:47;;;;;;;1.75;1.10;;;5.60;99.90;;;;;;5058473;28;20552;-74
2021/03/29 02:43:14;;;;;;;2.63;1.25;;;5.60;99.90;;;;;;5057740;28;20043;-74
2021/03/29 02:45:50;;;;;;;3.88;1.50;;;5.50;99.90;;;;;;5058367;28;20017;-74
2021/03/29 02:48:18;;;;;;;6.47;1.55;;;5.50;99.90;;;;;;5057349;28;20065;-75
2021/03/29 02:50:46;;;;;;;2.70;1.27;;;5.40;99.90;;;;;;5056156;28;20626;-74
2021/03/29 02:53:33;;;;;;;2.75;1.10;;;5.30;99.90;;;;;;5058808;28;20042;-74
2021/03/29 02:56:08;;;;;;;1.70;1.30;;;5.20;99.90;;;;;;5062401;28;20025;-74
2021/03/29 02:58:39;;;;;;;5.75;1.45;;;5.20;99.90;;;;;;5059731;28;20108;-74
2021/03/29 03:01:09;;;;;;;2.60;1.35;;;5.10;99.90;;;;;;5060834;28;20037;-74
2021/03/29 03:03:37;;;;;;;3.92;1.25;;;5.00;99.90;;;;;;5062461;28;20479;-74
2021/03/29 03:06:03;;;;;;;2.88;1.40;;;5.00;99.90;;;;;;5063187;28;20398;-74
2021/03/29 03:08:32;;;;;;;2.88;1.40;;;4.90;99.90;;;;;;5026677;28;20565;-74
2021/03/29 03:10:58;;;;;;;2.67;1.17;;;4.90;99.90;;;;;;5055381;28;20074;-74
2021/03/29 03:13:25;;;;;;;5.32;1.35;;;4.80;99.90;;;;;;5061970;28;20028;-74
2021/03/29 03:15:51;;;;;;;8.48;1.33;;;4.80;99.90;;;;;;5061850;28;20028;-75
2021/03/29 03:18:16;;;;;;;1.38;1.05;;;4.80;99.90;;;;;;5059915;28;20392;-75
2021/03/29 03:20:42;;;;;;;1.35;1.17;;;4.90;99.90;;;;;;5061097;28;20032;-74
2021/03/29 03:23:08;;;;;;;3.53;1.50;;;4.90;99.90;;;;;;5061346;28;20026;-74
2021/03/29 03:25:36;;;;;;;1.88;1.05;;;4.90;99.90;;;;;;5065261;28;20505;-75
2021/03/29 03:28:04;;;;;;;5.07;1.33;;;5.00;99.90;;;;;;5062871;28;20040;-75
2021/03/29 03:30:36;;;;;;;3.20;1.10;;;5.10;99.90;;;;;;5060142;28;20028;-74
2021/03/29 03:33:03;;;;;;;8.90;1.38;;;5.10;99.90;;;;;;5059262;28;20067;-75
2021/03/29 03:35:29;;;;;;;2.45;1.10;;;5.20;99.90;;;;;;5055351;28;20051;-75
2021/03/29 03:38:02;;;;;;;3.90;1.63;;;5.30;99.90;;;;;;5064179;28;20480;-75
2021/03/29 03:40:29;;;;;;;1.38;1.27;;;5.30;99.90;;;;;;5062646;28;20387;-74
2021/03/29 03:43:03;;;;;;;4.07;1.30;;;5.40;99.90;;;;;;5060619;28;20031;-75
2021/03/29 03:45:34;;;;;;;4.85;1.65;;;5.50;99.90;;;;;;5061657;28;20103;-75
2021/03/29 03:48:01;;;;;;;3.80;1.63;;;5.50;99.90;;;;;;5056257;28;20041;-74
2021/03/29 03:50:27;;;;;;;4.25;1.23;;;5.60;99.90;;;;;;5081707;28;20130;-75
2021/03/29 03:52:55;;;;;;;6.43;1.42;;;5.60;99.90;;;;;;5063538;28;20028;-75
2021/03/29 03:55:23;;;;;;;5.45;1.38;;;5.60;99.90;;;;;;5061003;28;20033;-75
2021/03/29 03:57:49;;;;;;;5.35;1.30;;;5.70;99.90;;;;;;5053166;28;20422;-74
2021/03/29 04:00:17;;;;;;;4.10;1.55;;;5.70;99.90;;;;;;5055862;28;20033;-75
2021/03/29 04:02:45;;;;;;;2.75;1.00;;;5.70;99.90;;;;;;5063763;28;20032;-74
2021/03/29 04:05:12;;;;;;;4.63;1.50;;;5.70;99.90;;;;;;5058963;28;20060;-74
2021/03/29 04:07:39;;;;;;;3.42;1.23;;;5.60;99.90;;;;;;5059333;28;20039;-75
2021/03/29 04:10:17;;;;;;;3.58;1.50;;;5.70;99.90;;;;;;5061465;28;20035;-75
2021/03/29 04:12:46;;;;;;;6.78;1.50;;;5.60;99.90;;;;;;5059101;28;20079;-75
2021/03/29 04:15:13;;;;;;;4.07;1.50;;;5.60;99.90;;;;;;5060354;28;20040;-75
2021/03/29 04:17:39;;;;;;;5.78;2.05;;;5.60;99.90;;;;;;5058437;28;20108;-74
2021/03/29 04:20:07;;;;;;;2.80;1.27;;;5.60;99.90;;;;;;5064526;28;20476;-74
2021/03/29 04:22:32;;;;;;;2.83;1.00;;;5.60;99.90;;;;;;5062138;28;20090;-75
2021/03/29 04:24:58;;;;;;;3.70;1.27;;;5.70;99.90;;;;;;5045104;28;20024;-75
2021/03/29 04:27:24;;;;;;;2.03;1.20;;;5.70;99.90;;;;;;5062144;28;20468;-75
2021/03/29 04:29:50;;;;;;;3.10;1.23;;;5.80;99.90;;;;;;5055657;28;20040;-74
2021/03/29 04:32:15;;;;;;;3.83;1.35;;;5.80;99.90;;;;;;5053363;28;20487;-74
2021/03/29 04:34:41;;;;;;;6.40;1.35;;;5.70;99.90;;;;;;5061777;28;20075;-75
2021/03/29 04:37:07;;;;;;;3.20;1.10;;;5.70;99.90;;;;;;5062324;28;20051;-74
2021/03/29 04:39:33;;;;;;;3.28;1.55;;;5.70;99.90;;;;;;5045980;28;20067;-74
2021/03/29 04:41:58;;;;;;;7.40;1.98;;;5.60;99.90;;;;;;5061165;28;20033;-74
2021/03/29 04:44:24;;;;;;;3.92;1.50;;;5.60;99.90;;;;;;5060151;28;20028;-74
2021/03/29 04:46:50;;;;;;;2.55;1.42;;;5.60;99.90;;;;;;5066414;28;20052;-75
2021/03/29 04:49:16;;;;;;;3.15;1.20;;;5.60;99.90;;;;;;5057012;28;20064;-75
2021/03/29 04:51:41;;;;;;;5.40;1.45;;;5.50;99.90;;;;;;5027287;28;20037;-74
2021/03/29 04:54:07;;;;;;;5.00;1.88;;;5.50;99.90;;;;;;5062488;28;20028;-75
2021/03/29 04:56:33;;;;;;;4.93;1.27;;;5.50;99.90;;;;;;5059112;28;20039;-75
2021/03/29 04:58:59;;;;;;;3.72;1.67;;;5.60;99.90;;;;;;5058078;28;20029;-74
2021/03/29 05:01:25;;;;;;;5.20;1.60;;;5.60;99.90;;;;;;5085040;28;20047;-74
2021/03/29 05:03:50;;;;;;;4.88;1.20;;;5.60;99.90;;;;;;5088593;28;20100;-74
2021/03/29 05:06:16;;;;;;;3.22;1.30;;;5.60;99.90;;;;;;5056284;28;20087;-74
2021/03/29 05:08:42;;;;;;;3.50;1.40;;;5.60;99.90;;;;;;5060485;28;20033;-75
2021/03/29 05:11:09;;;;;;;3.00;1.65;;;5.60;99.90;;;;;;5058055;28;20480;-75
2021/03/29 05:13:35;;;;;;;6.03;1.63;;;5.60;99.90;;;;;;5057274;28;20036;-73
2021/03/29 05:16:01;;;;;;;2.83;1.30;;;5.60;99.90;;;;;;5058221;28;20086;-74
2021/03/29 05:18:26;;;;;;;5.63;1.00;;;5.60;99.90;;;;;;5095926;28;20038;-75
2021/03/29 05:20:54;;;;;;;3.95;1.45;;;5.60;99.90;;;;;;5054278;28;20036;-75
2021/03/29 05:23:20;;;;;;;9.80;1.35;;;5.50;99.90;;;;;;5055396;28;20499;-74
2021/03/29 05:25:45;;;;;;;3.50;1.60;;;5.50;99.90;;;;;;5058703;28;20052;-74
2021/03/29 05:28:11;;;;;;;4.57;1.52;;;5.50;99.90;;;;;;5061541;28;20052;-74
2021/03/29 05:30:37;;;;;;;2.17;1.15;;;5.50;99.90;;;;;;5055495;28;20037;-74
2021/03/29 05:33:03;;;;;;;3.10;1.25;;;5.50;99.90;;;;;;5061258;28;20462;-74
2021/03/29 05:35:29;;;;;;;2.63;1.23;;;5.60;99.90;;;;;;5056891;28;20050;-75
2021/03/29 05:37:55;;;;;;;2.60;1.55;;;5.70;99.90;;;;;;5058110;28;20106;-75
2021/03/29 05:40:21;;;;;;;2.67;1.02;;;5.80;99.90;;;;;;5054393;28;20021;-74
2021/03/29 05:42:48;;;;;;;8.52;1.90;;;5.90;99.90;;;;;;5057852;28;20029;-74
2021/03/29 05:45:14;;;;;;;8.82;3.03;;;6.00;99.90;;;;;;5056757;28;20535;-74
2021/03/29 05:47:41;;;;;;;5.63;2.67;;;6.00;99.90;;;;;;5060098;28;20028;-74
2021/03/29 05:50:09;;;;;;;7.35;2.58;;;6.00;99.90;;;;;;5058670;28;20027;-74
2021/03/29 05:52:35;;;;;;;5.72;2.17;;;6.20;99.90;;;;;;5062770;28;20020;-75
2021/03/29 05:55:01;;;;;;;4.30;2.33;;;6.20;99.90;;;;;;5057411;28;20029;-75
2021/03/29 05:57:38;;;;;;;3.40;1.88;;;6.30;99.90;;;;;;5060050;28;20033;-75
2021/03/29 06:00:45;;;;;;;3.95;1.63;;;6.30;99.90;;;;;;5058756;28;20411;-75
2021/03/29 06:03:28;;;;;;;1.90;1.50;;;6.40;99.90;;;;;;5041277;28;20089;-74
2021/03/29 06:05:59;;;;;;;3.08;1.20;;;6.40;99.90;;;;;;5097426;28;20057;-75
2021/03/29 06:08:27;;;;;;;2.50;1.30;;;6.60;99.90;;;;;;5060918;28;20039;-75
2021/03/29 06:10:55;;;;;;;2.58;1.42;;;6.80;99.90;;;;;;5054492;28;20052;-74
2021/03/29 06:13:30;;;;;;;2.85;1.27;;;7.00;99.90;;;;;;5055280;28;20029;-75
2021/03/29 06:16:10;;;;;;;1.70;1.03;;;7.10;99.90;;;;;;5050479;28;20064;-75
2021/03/29 06:18:38;;;;;;;4.43;1.63;;;7.30;99.90;;;;;;5052620;28;20035;-74
2021/03/29 06:21:10;;;;;;;5.68;0.95;;;7.40;99.90;;;;;;5054532;28;20399;-75
2021/03/29 06:23:38;;;;;;;1.92;1.10;;;7.40;99.90;;;;;;5055515;28;20036;-75
2021/03/29 06:26:25;;;;;;;5.30;1.38;;;7.30;99.90;;;;;;5060208;28;20488;-74
2021/03/29 06:28:51;;;;;;;5.72;1.20;;;7.40;99.90;;;;;;5063329;28;20082;-74
2021/03/29 06:31:19;;;;;;;2.15;1.00;;;7.60;99.90;;;;;;5060891;28;20017;-75
2021/03/29 06:33:46;;;;;;;4.03;1.30;;;7.80;99.90;;;;;;5060163;28;20055;-75
2021/03/29 06:36:31;;;;;;;2.42;1.15;;;8.20;99.90;;;;;;5066228;28;20047;-74
2021/03/29 06:39:09;;;;;;;3.45;0.90;;;8.50;99.90;;;;;;5059774;28;20059;-75
2021/03/29 06:41:35;;;;;;;2.58;0.90;;;8.90;99.90;;;;;;5061625;28;20036;-74
2021/03/29 06:44:01;;;;;;;3.33;0.98;;;9.30;99.90;;;;;;5060287;28;20046;-74
2021/03/29 06:46:28;;;;;;;1.63;0.80;;;9.70;99.90;;;;;;5061955;28;20094;-75
2021/03/29 06:48:56;;;;;;;6.45;0.90;;;10.10;99.90;;;;;;5063483;28;20025;-75
2021/03/29 06:51:25;;;;;;;4.38;1.60;;;10.50;99.90;;;;;;5058396;28;20120;-75
2021/03/29 06:53:56;;;;;;;3.63;1.13;;;10.80;99.90;;;;;;5058475;28;20017;-74
2021/03/29 06:56:30;;;;;;;2.25;0.90;;;11.10;99.90;;;;;;5055885;28;21366;-75
2021/03/29 06:59:06;;;;;;;3.25;1.20;;;11.50;99.90;;;;;;5055805;28;20025;-75
2021/03/29 07:01:37;;;;;;;2.15;1.02;;;11.80;99.90;;;;;;5063084;28;20445;-75
2021/03/29 07:04:06;;;;;;;4.63;1.63;;;12.10;99.90;;;;;;5064258;28;20086;-75
2021/03/29 07:06:34;;;;;;;3.97;1.00;;;12.30;99.90;;;;;;5055449;28;20084;-75
2021/03/29 07:09:06;;;;;;;3.22;1.35;;;12.50;99.90;;;;;;5058474;28;20063;-75
2021/03/29 07:11:37;;;;;;;3.95;1.75;;;12.70;99.90;;;;;;5074044;28;20395;-75
2021/03/29 07:14:07;;;;;;;2.65;1.35;;;13.00;95.30;;;;;;5061495;28;20044;-76
2021/03/29 07:16:33;;;;;;;2.92;1.63;;;13.20;98.80;;;;;;5046793;28;20048;-75
2021/03/29 07:19:02;;;;;;;2.67;1.33;;;13.40;96.00;;;;;;5057862;28;20623;-75
2021/03/29 07:21:29;;;;;;;2.55;1.17;;;13.50;94.30;;;;;;5053855;28;20029;-74
2021/03/29 07:24:04;;;;;;;2.78;1.00;;;13.90;95.80;;;;;;5053729;28;20017;-75
2021/03/29 07:26:40;;;;;;;5.82;1.25;;;14.30;92.90;;;;;;5056723;28;20033;-74
2021/03/29 07:29:22;;;;;;;4.70;1.33;;;14.70;91.20;;;;;;5056891;28;20033;-74
2021/03/29 07:31:57;;;;;;;4.30;0.95;;;15.10;90.30;;;;;;5054748;28;20107;-74
2021/03/29 07:34:51;;;;;;;3.33;1.23;;;15.50;85.60;;;;;;5059517;28;20032;-74
2021/03/29 07:37:36;;;;;;;5.22;1.63;;;15.90;80.90;;;;;;5054635;28;20108;-74
2021/03/29 07:40:34;;;;;;;1.23;1.13;;;16.20;78.90;;;;;;5085613;28;20529;-73
2021/03/29 07:43:17;;;;;;;2.65;1.10;;;16.40;77.30;;;;;;5047992;28;20279;-73
2021/03/29 07:45:51;;;;;;;5.03;1.30;;;16.40;78.10;;;;;;5049617;28;20067;-75
2021/03/29 07:48:41;;;;;;;7.47;1.48;;;16.60;71.90;;;;;;5049886;28;20036;-73
2021/03/29 07:51:09;;;;;;;5.28;1.08;;;16.80;75.80;;;;;;5066629;28;20510;-74
2021/03/29 07:53:40;;;;;;;6.18;1.20;;;17.00;72.10;;;;;;5053416;28;20029;-75
2021/03/29 07:56:06;;;;;;;5.60;1.23;;;17.20;71.70;;;;;;5057450;28;20086;-73
2021/03/29 07:58:44;;;;;;;3.15;1.00;;;17.30;67.10;;;;;;5059357;28;20736;-74
2021/03/29 08:01:11;;;;;;;5.25;1.83;;;17.40;67.20;;;;;;5055887;28;20032;-78
2021/03/29 08:03:41;;;;;;;3.53;1.40;;;17.50;66.50;;;;;;5056089;28;20025;-74
2021/03/29 08:06:40;;;;;;;3.67;1.42;;;17.50;62.90;;;;;;5052938;28;20136;-73
2021/03/29 08:09:07;;;;;;;3.50;1.10;;;17.10;64.30;;;;;;5088294;28;20025;-74
2021/03/29 08:11:53;;;;;;;2.30;1.20;;;17.10;66.50;;;;;;5079195;28;20029;-73
2021/03/29 08:14:34;;;;;;;3.42;1.20;;;17.30;64.30;;;;;;5050967;28;20141;-74
2021/03/29 08:17:38;;;;;;;2.83;1.27;;;17.30;64.10;;;;;;5049819;28;20115;-74
2021/03/29 08:20:13;;;;;;;4.55;1.48;;;17.50;63.30;;;;;;5053580;28;20049;-73
2021/03/29 08:22:39;;;;;;;3.70;1.27;;;17.60;59.50;;;;;;5054402;28;20029;-74
2021/03/29 08:25:05;;;;;;;4.93;1.33;;;17.30;61.10;;;;;;5053024;28;20033;-73
2021/03/29 08:27:32;;;;;;;8.30;2.05;;;17.20;62.70;;;;;;5061907;28;20029;-74
2021/03/29 08:30:15;;;;;;;5.35;1.60;;;17.00;62.80;;;;;;5055843;28;20388;-74
2021/03/29 08:32:41;;;;;;;6.22;1.70;;;16.90;63.80;;;;;;5055741;28;20020;-74
2021/03/29 08:35:18;;;;;;;4.10;1.58;;;17.00;62.50;;;;;;5049686;28;20050;-74
2021/03/29 08:37:50;;;;;;;7.30;1.60;;;16.90;63.90;;;;;;5057406;28;20036;-73
2021/03/29 08:40:27;;;;;;;6.82;1.83;;;16.80;61.40;;;;;;5054651;28;20543;-71
2021/03/29 08:42:55;;;;;;;5.68;1.63;;;16.50;59.40;;;;;;5051972;28;20024;-70
2021/03/29 08:45:25;;;;;;;6.32;1.85;;;16.40;65.60;;;;;;5057083;28;20024;-75
2021/03/29 08:47:56;;;;;;;3.85;1.63;;;16.20;59.70;;;;;;5059210;28;20073;-74
2021/03/29 08:50:34;;;;;;;3.45;1.55;;;15.90;63.60;;;;;;5056728;28;20230;-73
2021/03/29 08:53:05;;;;;;;6.55;2.15;;;15.70;64.20;;;;;;5058696;28;20024;-75
2021/03/29 08:55:51;;;;;;;2.60;1.25;;;15.60;65.90;;;;;;5053703;28;20074;-73
2021/03/29 08:58:17;;;;;;;5.45;1.80;;;15.40;68.40;;;;;;5051751;28;20029;-74
2021/03/29 09:00:44;;;;;;;4.25;1.42;;;15.40;67.90;;;;;;5058882;28;20033;-74
2021/03/29 09:03:21;;;;;;;6.25;1.40;;;15.30;65.10;;;;;;5052915;28;20139;-75
2021/03/29 09:05:46;;;;;;;4.63;1.45;;;15.20;69.40;;;;;;5054062;28;20021;-75
2021/03/29 09:08:12;;;;;;;2.90;1.40;;;15.30;67.70;;;;;;5056896;28;20035;-75
2021/03/29 09:10:39;;;;;;;5.25;1.60;;;15.30;67.30;;;;;;5055687;28;20029;-74
2021/03/29 09:13:09;;;;;;;5.55;1.33;;;15.20;67.20;;;;;;5053965;28;20028;-78
2021/03/29 09:15:40;;;;;;;3.92;1.35;;;15.00;64.60;;;;;;5054979;28;20029;-74
2021/03/29 09:18:07;;;;;;;3.47;1.38;;;14.90;67.50;;;;;;5059961;28;20127;-74
2021/03/29 09:20:36;;;;;;;3.50;1.33;;;14.80;65.80;;;;;;5055936;28;20032;-75
2021/03/29 09:23:03;;;;;;;4.22;1.52;;;14.80;69.10;;;;;;5054666;28;20028;-74
2021/03/29 09:25:35;;;;;;;4.80;1.60;;;14.80;70.90;;;;;;5052859;28;20029;-74
2021/03/29 09:28:41;;;;;;;4.13;1.17;;;14.80;67.00;;;;;;5056002;28;20033;-74
2021/03/29 09:31:22;;;;;;;4.68;1.42;;;14.80;72.70;;;;;;5042206;28;20127;-74
2021/03/29 09:33:49;;;;;;;4.50;1.75;;;14.90;68.60;;;;;;5050324;28;20025;-74
2021/03/29 09:36:20;;;;;;;3.50;1.10;;;14.90;70.00;;;;;;5049098;28;20171;-74
2021/03/29 09:39:00;;;;;;;3.92;1.25;;;14.90;71.40;;;;;;5054272;28;20120;-74
2021/03/29 09:41:32;;;;;;;3.03;1.20;;;15.00;71.40;;;;;;5059446;28;20786;-74
2021/03/29 09:44:04;;;;;;;5.03;1.55;;;15.00;68.10;;;;;;5057723;28;20029;-72
2021/03/29 09:46:32;;;;;;;2.00;1.20;;;15.00;69.10;;;;;;5047086;28;20087;-73
2021/03/29 09:49:13;;;;;;;5.82;1.63;;;15.00;68.70;;;;;;5049124;28;20029;-74
2021/03/29 09:51:40;;;;;;;5.53;1.60;;;15.00;69.20;;;;;;5042779;28;20546;-74
2021/03/29 09:54:20;;;;;;;5.35;1.58;;;15.00;69.40;;;;;;5051973;28;20489;-76
2021/03/29 09:56:46;;;;;;;3.33;1.30;;;15.00;69.00;;;;;;5052489;28;20660;-74
2021/03/29 09:59:12;;;;;;;5.45;1.42;;;15.00;71.60;;;;;;5046646;28;20037;-77
2021/03/29 10:01:43;;;;;;;7.22;1.17;;;15.10;70.90;;;;;;5049144;28;20052;-76
2021/03/29 10:04:14;;;;;;;6.60;1.60;;;15.20;69.00;;;;;;5054505;28;20013;-75
2021/03/29 10:07:00;;;;;;;5.47;1.10;;;15.20;67.70;;;;;;5057167;28;20033;-76
2021/03/29 10:09:36;;;;;;;;;;;15.20;69.00;;;;;;5060949;28;20072;-76
2021/03/29 10:12:04;;;;;;;2.70;1.20;;;15.30;67.70;;;;;;5060857;28;19913;-76
2021/03/29 10:14:37;;;;;;;4.53;1.17;;;15.30;66.10;;;;;;5059126;28;20020;-74
2021/03/29 10:17:17;;;;;;;2.65;1.27;;;15.40;68.70;;;;;;5057726;28;20040;-75
2021/03/29 10:19:43;;;;;;;5.22;1.58;;;15.40;64.80;;;;;;5055732;28;20028;-76
2021/03/29 10:22:15;;;;;;;4.72;1.52;;;15.50;70.70;;;;;;5056414;28;20055;-76
2021/03/29 10:25:05;;;;;;;7.22;1.58;;;15.50;65.30;;;;;;5056654;28;20032;-75
2021/03/29 10:27:36;;;;;;;4.25;0.98;;;15.50;62.30;;;;;;5071874;28;20040;-75
2021/03/29 10:30:06;;;;;;;5.32;1.48;;;15.40;66.80;;;;;;5057577;28;20487;-76
2021/03/29 10:32:32;;;;;;;4.40;0.98;;;15.40;64.50;;;;;;5054226;28;20052;-74
2021/03/29 10:34:58;;;;;;;3.80;1.33;;;15.20;67.00;;;;;;5055801;28;20596;-77
2021/03/29 10:37:29;;;;;;;4.38;1.30;;;15.30;66.70;;;;;;5055839;28;20033;-75
2021/03/29 10:39:57;;;;;;;4.07;1.30;;;15.30;70.10;;;;;;5049348;28;20582;-74
2021/03/29 10:42:26;;;;;;;5.47;1.20;;;15.30;64.40;;;;;;5055950;28;20128;-75
2021/03/29 10:44:53;;;;;;;4.25;1.35;;;15.40;67.20;;;;;;5054512;28;20063;-74
2021/03/29 10:47:19;;;;;;;2.28;1.02;;;15.50;66.60;;;;;;5060062;28;20498;-75
2021/03/29 10:49:45;;;;;;;4.40;1.30;;;15.60;63.90;;;;;;5056634;28;20056;-74
2021/03/29 10:52:11;;;;;;;5.63;1.38;;;15.60;63.90;;;;;;5057483;28;20487;-74
2021/03/29 10:54:38;;;;;;;5.80;1.70;;;15.60;61.10;;;;;;5058176;28;20021;-76
2021/03/29 10:57:05;;;;;;;6.07;1.23;;;15.60;62.20;;;;;;5050834;28;20411;-74
2021/03/29 10:59:31;;;;;;;1.92;1.13;;;15.60;62.60;;;;;;5058841;28;20039;-74
2021/03/29 11:01:57;;;;;;;6.22;1.33;;;15.60;64.40;;;;;;5057200;28;20303;-76
2021/03/29 11:04:22;;;;;;;1.83;0.82;;;15.70;64.20;;;;;;5052441;28;20432;-73
2021/03/29 11:06:48;;;;;;;3.30;0.80;;;15.70;64.90;;;;;;5059374;28;20059;-74
2021/03/29 11:09:14;;;;;;;2.08;1.15;;;15.80;64.70;;;;;;5055852;28;20453;-77
2021/03/29 11:11:40;;;;;;;3.58;1.50;;;15.80;63.30;;;;;;5051047;28;20037;-74
2021/03/29 11:14:06;;;;;;;4.68;1.13;;;15.90;60.90;;;;;;5057119;28;20056;-74
2021/03/29 11:16:33;;;;;;;3.70;1.40;;;16.00;63.20;;;;;;5058611;28;20123;-75
2021/03/29 11:18:58;;;;;;;3.17;0.98;;;16.00;58.40;;;;;;5059383;28;20024;-74
2021/03/29 11:21:24;;;;;;;4.22;1.20;;;16.10;59.40;;;;;;5056661;28;20700;-73
2021/03/29 11:23:50;;;;;;;6.05;1.30;;;16.20;59.20;;;;;;5058771;28;20480;-75
2021/03/29 11:26:16;;;;;;;4.88;1.00;;;16.20;59.50;;;;;;5060699;28;20029;-72
2021/03/29 11:28:41;;;;;;;2.63;1.05;;;16.30;61.90;;;;;;5060774;28;20032;-75
2021/03/29 11:31:07;;;;;;;4.32;1.13;;;16.50;61.10;;;;;;5061914;28;20040;-73
2021/03/29 11:33:33;;;;;;;3.40;1.40;;;16.50;61.80;;;;;;5066411;28;20103;-72
2021/03/29 11:35:59;;;;;;;2.50;1.25;;;16.60;61.80;;;;;;5053485;28;20554;-74
2021/03/29 11:38:25;;;;;;;3.88;1.30;;;16.70;60.40;;;;;;5051395;28;20159;-72
2021/03/29 11:40:51;;;;;;;5.50;1.40;;;16.70;57.00;;;;;;5055813;28;20029;-72
2021/03/29 11:43:17;;;;;;;3.53;1.00;;;16.70;60.10;;;;;;5035470;28;20600;-73
2021/03/29 11:45:43;;;;;;;6.47;1.08;;;16.80;63.10;;;;;;5057475;28;20035;-73
2021/03/29 11:48:09;;;;;;;2.17;1.38;;;16.90;56.50;;;;;;5056241;28;20143;-73
2021/03/29 11:50:35;;;;;;;2.42;0.98;;;16.90;59.60;;;;;;5058825;28;20027;-73
2021/03/29 11:53:01;;;;;;;4.13;1.17;;;17.10;57.90;;;;;;5058583;28;20054;-73
2021/03/29 11:55:27;;;;;;;1.55;0.95;;;17.20;58.60;;;;;;5050734;28;20036;-72
2021/03/29 11:57:56;;;;;;;5.47;1.15;;;17.40;60.90;;;;;;5054569;28;20048;-72
2021/03/29 12:05:55;;;;;;;4.07;0.85;;;17.90;54.50;;;;;;4993298;28;20030;-72
2021/03/29 12:13:43;;;;;;;2.65;1.10;;;18.10;54.60;;;;;;5056162;28;20108;-72
2021/03/29 12:16:09;;;;;;;3.50;1.10;;;18.10;54.90;;;;;;5058951;28;20132;-72
2021/03/29 12:18:49;;;;;;;3.70;1.00;;;18.10;55.10;;;;;;5049747;28;20035;-72
2021/03/29 12:21:25;;;;;;;2.22;1.55;;;18.20;55.20;;;;;;5052806;28;20036;-73
2021/03/29 12:23:54;;;;;;;5.88;1.08;;;18.20;52.80;;;;;;5078770;28;20029;-73
2021/03/29 12:26:25;;;;;;;5.28;1.08;;;18.20;54.30;;;;;;5056161;28;20102;-72
2021/03/29 12:28:52;;;;;;;6.50;1.42;;;18.30;56.90;;;;;;5050008;28;20029;-72
2021/03/29 12:31:20;;;;;;;2.05;1.08;;;18.30;53.50;;;;;;5049171;28;20551;-72
2021/03/29 12:33:47;;;;;;;1.63;0.70;;;18.30;53.40;;;;;;5061114;28;20479;-72
2021/03/29 12:36:13;;;;;;;1.52;1.00;;;18.30;56.70;;;;;;5053780;28;20119;-71
2021/03/29 12:38:43;;;;;;;2.35;1.10;;;18.40;54.20;;;;;;5055847;28;20037;-71
2021/03/29 12:41:11;;;;;;;2.33;0.90;;;18.40;51.40;;;;;;5054293;28;20024;-72
2021/03/29 12:46:05;;;;;;;1.27;0.70;;;18.40;54.60;;;;;;5046943;28;20029;-72
2021/03/29 12:48:33;;;;;;;3.42;0.80;;;18.50;53.20;;;;;;5054569;28;20040;-72
2021/03/29 12:51:01;;;;;;;0.95;0.63;;;18.50;54.00;;;;;;5058603;28;20029;-72
2021/03/29 12:53:28;;;;;;;5.00;0.70;;;18.60;54.10;;;;;;5059367;28;20111;-71
2021/03/29 12:55:55;;;;;;;2.85;0.90;;;18.80;50.50;;;;;;5055560;28;20420;-72
2021/03/29 12:58:22;;;;;;;3.53;0.63;;;18.90;51.70;;;;;;5043364;28;20029;-71
2021/03/29 13:00:48;;;;;;;3.65;0.80;;;19.00;49.00;;;;;;5054677;28;20033;-72
2021/03/29 13:03:16;;;;;;;2.45;0.60;;;19.00;51.00;;;;;;5054477;28;20013;-72
2021/03/29 13:05:53;;;;;;;2.38;0.73;;;19.10;53.10;;;;;;5057075;28;20029;-72
2021/03/29 13:08:24;;;;;;;1.20;0.80;;;19.30;49.80;;;;;;5050817;28;20025;-72
2021/03/29 13:11:04;;;;;;;1.90;0.90;;;19.40;51.90;;;;;;5053692;28;20920;-72
2021/03/29 13:13:33;;;;;;;2.00;0.93;;;19.60;52.00;;;;;;5049084;28;20033;-72
2021/03/29 13:15:59;;;;;;;1.40;0.60;;;19.80;49.00;;;;;;5057763;28;20483;-72
2021/03/29 13:18:25;;;;;;;1.55;0.73;;;19.80;48.80;;;;;;5058786;28;20033;-72
2021/03/29 13:20:52;;;;;;;3.45;0.80;;;19.90;50.90;;;;;;5060887;28;20519;-72